Time;durP1;ratioP1;P1;durP2;ratioP2;P2;SDS_P1;SDS_P2;PMS_P1;PMS_P2;Temp;Humidity;BMP_temperature;BMP_pressure;BME280_temperature;BME280_humidity;BME280_pressure;Samples;Min_cycle;Max_cycle;Signal;HPM_P1;HPM_P2
2022/02/02 00:00:25;;;;;;;24.70;10.50;;;;;;;-2.94;65.40;98527.34;1735493;82;21039;-68
2022/02/02 00:02:58;;;;;;;28.90;12.58;;;;;;;-3.00;65.56;98529.70;1707685;83;20984;-69
2022/02/02 00:05:36;;;;;;;26.57;10.60;;;;;;;-3.04;65.77;98532.64;1737071;82;21571;-68
2022/02/02 00:10:51;;;;;;;29.45;10.40;;;;;;;-3.09;66.01;98536.63;1737023;82;20995;-69
2022/02/02 00:13:01;;;;;;;23.40;9.20;;;;;;;-3.12;66.20;98533.09;1704912;84;21063;-69
2022/02/02 00:21:03;;;;;;;18.80;7.65;;;;;;;-3.06;66.70;98525.33;1737343;82;21485;-70
2022/02/02 00:23:30;;;;;;;16.77;7.60;;;;;;;-3.03;66.64;98518.60;1691188;84;21529;-69
2022/02/02 00:26:04;;;;;;;15.30;7.22;;;;;;;-3.02;66.65;98514.30;1736301;82;20988;-70
2022/02/02 00:28:27;;;;;;;19.77;8.45;;;;;;;-3.02;66.54;98506.77;1735176;82;20942;-69
2022/02/02 00:30:50;;;;;;;21.15;8.63;;;;;;;-3.02;66.52;98504.86;1734412;81;21039;-70
2022/02/02 00:33:28;;;;;;;17.50;7.95;;;;;;;-3.01;66.62;98503.81;1710548;82;20998;-69
2022/02/02 00:36:07;;;;;;;19.32;7.83;;;;;;;-3.02;66.47;98495.98;1759175;81;21429;-70
2022/02/02 00:38:22;;;;;;;21.77;8.38;;;;;;;-3.07;66.36;98487.33;1732198;82;21011;-69
2022/02/02 00:40:52;;;;;;;21.85;7.80;;;;;;;-3.08;66.55;98488.38;1760758;81;20901;-70
2022/02/02 00:43:18;;;;;;;21.90;7.95;;;;;;;-3.15;66.23;98481.02;1737833;82;20980;-69
2022/02/02 00:45:49;;;;;;;20.45;7.42;;;;;;;-3.19;66.48;98488.27;1734641;81;21158;-70
2022/02/02 00:48:18;;;;;;;26.48;9.00;;;;;;;-3.16;66.67;98486.97;1768290;81;20997;-69
2022/02/02 00:50:46;;;;;;;24.70;8.30;;;;;;;-3.11;66.65;98481.63;1760963;81;20980;-70
2022/02/02 00:53:14;;;;;;;19.57;7.87;;;;;;;-3.06;66.56;98481.67;1768279;81;20975;-69
2022/02/02 00:55:42;;;;;;;20.80;8.10;;;;;;;-3.01;66.45;98476.86;1760752;81;21015;-68
2022/02/02 00:58:13;;;;;;;21.68;7.20;;;;;;;-2.96;66.17;98478.25;1737953;82;21169;-69
2022/02/02 01:00:43;;;;;;;30.48;7.10;;;;;;;-2.92;65.86;98482.60;1760796;81;21031;-69
2022/02/02 01:03:12;;;;;;;12.60;6.12;;;;;;;-2.89;65.64;98483.95;1738004;82;20982;-70
2022/02/02 01:05:39;;;;;;;15.98;7.33;;;;;;;-2.90;65.65;98476.95;1760663;81;21004;-70
2022/02/02 01:10:59;;;;;;;22.07;7.65;;;;;;;-2.99;65.32;98476.07;1760665;81;21131;-68
2022/02/02 01:19:13;;;;;;;24.25;8.23;;;;;;;-3.18;65.54;98464.84;1738189;82;20984;-69
2022/02/02 01:21:44;;;;;;;15.68;6.78;;;;;;;-3.26;65.68;98449.95;1758715;81;20948;-70
2022/02/02 01:29:28;;;;;;;20.15;7.53;;;;;;;-3.34;66.00;98445.00;1732368;81;20991;-70
2022/02/02 01:31:55;;;;;;;14.50;7.35;;;;;;;-3.35;66.03;98450.94;1732297;81;20992;-69
2022/02/02 01:34:24;;;;;;;15.55;6.17;;;;;;;-3.36;65.93;98443.11;1760209;81;21508;-68
2022/02/02 01:36:51;;;;;;;19.37;7.30;;;;;;;-3.38;65.82;98443.89;1760201;81;21465;-68
2022/02/02 01:39:25;;;;;;;19.40;7.97;;;;;;;-3.42;65.88;98440.89;1735199;82;21047;-69
2022/02/02 01:41:52;;;;;;;20.05;6.75;;;;;;;-3.43;65.96;98440.63;1756909;81;20988;-69
2022/02/02 01:44:35;;;;;;;17.80;6.85;;;;;;;-3.44;65.90;98433.06;1706199;82;20972;-69
2022/02/02 01:46:57;;;;;;;16.32;6.90;;;;;;;-3.44;65.76;98429.55;1756536;81;21426;-69
2022/02/02 01:55:00;;;;;;;15.90;6.40;;;;;;;-3.46;65.63;98427.11;1760700;81;20943;-68
2022/02/02 02:00:11;;;;;;;17.42;6.85;;;;;;;-3.57;65.62;98422.17;1760628;81;21003;-69
2022/02/02 02:02:39;;;;;;;15.58;7.12;;;;;;;-3.63;65.77;98416.42;1734464;81;21031;-69
2022/02/02 02:05:12;;;;;;;16.42;6.70;;;;;;;-3.66;65.79;98416.94;1760540;81;21540;-69
2022/02/02 02:07:42;;;;;;;16.48;8.33;;;;;;;-3.70;65.77;98411.80;1729350;83;20976;-69
2022/02/02 02:10:11;;;;;;;16.25;5.95;;;;;;;-3.73;65.70;98408.23;1732247;81;20949;-69
2022/02/02 02:12:55;;;;;;;15.30;5.85;;;;;;;-3.82;65.62;98406.00;1728627;83;20909;-69
2022/02/02 02:15:20;;;;;;;16.62;6.10;;;;;;;-3.86;65.86;98395.99;1759660;81;21121;-71
2022/02/02 02:17:47;;;;;;;14.43;6.33;;;;;;;-3.85;66.12;98393.56;1701642;83;21485;-69
2022/02/02 02:20:17;;;;;;;13.32;5.75;;;;;;;-3.81;66.04;98390.14;1760937;81;20928;-69
2022/02/02 02:22:44;;;;;;;17.55;7.47;;;;;;;-3.80;66.00;98389.06;1732485;81;20980;-68
2022/02/02 02:25:22;;;;;;;14.33;6.08;;;;;;;-3.80;65.84;98390.41;1735064;81;20944;-68
2022/02/02 02:27:49;;;;;;;16.67;7.03;;;;;;;-3.80;65.87;98385.55;1760516;81;21782;-69
2022/02/02 02:30:39;;;;;;;19.05;8.25;;;;;;;-3.82;66.01;98385.80;1760475;81;21031;-69
2022/02/02 02:33:30;;;;;;;17.35;6.58;;;;;;;-3.82;65.97;98383.66;1727456;81;21015;-69
2022/02/02 02:36:07;;;;;;;16.15;5.85;;;;;;;-3.83;65.93;98382.84;1702767;83;21545;-69
2022/02/02 02:57:17;;;;;;;15.53;5.35;;;;;;;-4.06;65.97;98375.86;1728955;83;21014;-69
2022/02/02 03:00:17;;;;;;;13.32;5.85;;;;;;;-4.06;66.08;98373.17;1760602;81;20881;-69
2022/02/02 03:30:03;;;;;;;11.00;5.80;;;;;;;-4.20;66.03;98359.28;1722752;82;21009;-70
2022/02/02 03:32:57;;;;;;;11.73;5.90;;;;;;;-4.24;66.23;98358.96;1722643;82;21064;-70
2022/02/02 03:51:34;;;;;;;20.27;7.75;;;;;;;-4.35;66.81;98356.66;1694389;84;21434;-70
2022/02/02 04:02:08;;;;;;;31.77;12.07;;;;;;;-4.45;66.95;98351.19;1725061;83;21525;-69
2022/02/02 04:07:05;;;;;;;21.82;9.38;;;;;;;-4.60;67.11;98358.49;1694168;84;21425;-70
2022/02/02 04:09:36;;;;;;;18.50;7.62;;;;;;;-4.63;67.36;98366.54;1724895;83;21450;-69
2022/02/02 04:55:57;;;;;;;20.23;8.00;;;;;;;-4.97;68.86;98351.81;1728570;83;21119;-70
2022/02/02 05:04:00;;;;;;;18.50;7.97;;;;;;;-4.96;69.12;98350.22;1760757;81;20997;-69
2022/02/02 05:06:27;;;;;;;22.62;8.90;;;;;;;-4.94;69.18;98352.14;1757508;81;20984;-70
2022/02/02 05:09:10;;;;;;;21.42;8.43;;;;;;;-4.91;69.18;98352.98;1723058;83;21001;-69
2022/02/02 05:12:03;;;;;;;21.85;7.87;;;;;;;-4.90;69.21;98353.28;1757462;81;20984;-69
2022/02/02 05:15:12;;;;;;;18.85;6.87;;;;;;;-4.86;69.15;98351.44;1756568;81;20953;-69
2022/02/02 05:49:30;;;;;;;60.20;16.45;;;;;;;-4.98;69.22;98365.77;1724387;83;22277;-70
2022/02/02 05:51:49;;;;;;;66.25;19.95;;;;;;;-5.04;69.14;98359.52;1721605;83;20873;-70
2022/02/02 05:54:08;;;;;;;52.88;16.75;;;;;;;-5.07;69.37;98368.08;1723107;83;21381;-69
2022/02/02 05:56:46;;;;;;;58.98;18.27;;;;;;;-5.07;69.47;98363.22;1724894;83;20909;-69
2022/02/02 05:59:25;;;;;;;91.70;22.93;;;;;;;-5.06;69.67;98372.91;1724629;83;21417;-70
2022/02/02 06:01:57;;;;;;;77.78;21.33;;;;;;;-5.01;69.81;98371.64;1724733;82;21122;-69
2022/02/02 06:04:26;;;;;;;78.47;19.75;;;;;;;-5.02;69.46;98372.19;1724986;82;20979;-70
2022/02/02 06:07:00;;;;;;;84.37;23.00;;;;;;;-5.04;69.53;98373.48;1724741;82;21005;-70
2022/02/02 06:09:34;;;;;;;55.35;15.58;;;;;;;-5.06;69.54;98374.25;1724875;82;21001;-70
2022/02/02 06:11:59;;;;;;;44.00;12.40;;;;;;;-5.05;69.65;98377.23;1676519;83;20948;-69
2022/02/02 06:14:29;;;;;;;28.45;9.95;;;;;;;-5.04;69.73;98370.27;1724776;83;21178;-70
2022/02/02 06:17:01;;;;;;;40.38;11.05;;;;;;;-5.00;69.87;98370.59;1724712;83;21084;-69
2022/02/02 06:19:25;;;;;;;69.85;19.40;;;;;;;-4.92;69.91;98370.17;1724580;83;20996;-69
2022/02/02 06:21:59;;;;;;;64.95;18.48;;;;;;;-4.87;69.79;98368.09;1724963;83;21000;-70
2022/02/02 06:24:33;;;;;;;49.03;14.28;;;;;;;-4.81;69.84;98370.33;1724781;82;21487;-70
2022/02/02 06:27:11;;;;;;;49.83;13.40;;;;;;;-4.73;69.77;98367.73;1725287;82;21511;-71
2022/02/02 06:29:43;;;;;;;39.18;10.80;;;;;;;-4.67;69.72;98368.91;1724843;81;21166;-69
2022/02/02 06:32:16;;;;;;;36.20;12.13;;;;;;;-4.59;69.75;98368.20;1724196;82;20949;-69
2022/02/02 06:34:45;;;;;;;41.95;13.20;;;;;;;-4.48;69.94;98367.80;1724974;83;21474;-70
2022/02/02 06:37:13;;;;;;;72.72;18.23;;;;;;;-4.37;69.60;98368.75;1710337;83;21017;-70
2022/02/02 06:39:41;;;;;;;57.00;13.75;;;;;;;-4.35;69.06;98374.16;1724722;82;20901;-71
2022/02/02 06:42:10;;;;;;;31.40;9.45;;;;;;;-4.34;68.96;98367.73;1710476;83;20932;-69
2022/02/02 06:44:42;;;;;;;26.17;9.08;;;;;;;-4.26;68.98;98371.05;1724767;82;20917;-69
2022/02/02 06:47:09;;;;;;;28.77;9.88;;;;;;;-4.23;68.84;98374.58;1724841;82;20929;-70
2022/02/02 06:49:40;;;;;;;28.02;9.65;;;;;;;-4.16;68.74;98374.66;1724833;83;20921;-69
2022/02/02 06:52:21;;;;;;;47.17;13.13;;;;;;;-4.09;68.43;98370.95;1724806;83;21513;-70
2022/02/02 06:55:10;;;;;;;57.13;17.55;;;;;;;-4.04;68.16;98375.05;1724662;82;20913;-68
2022/02/02 06:58:26;;;;;;;51.45;13.70;;;;;;;-3.96;67.97;98375.95;1724721;82;20898;-69
2022/02/02 07:00:59;;;;;;;29.63;9.60;;;;;;;-3.86;67.93;98371.77;1724465;82;20946;-70
2022/02/02 07:03:40;;;;;;;62.27;18.15;;;;;;;-3.75;67.96;98372.14;1724390;82;20885;-70
2022/02/02 07:06:16;;;;;;;66.12;16.93;;;;;;;-3.64;68.09;98372.25;1723874;83;21951;-70
2022/02/02 07:09:02;;;;;;;56.70;16.05;;;;;;;-3.55;67.34;98368.83;1712039;83;21080;-70
2022/02/02 07:11:32;;;;;;;49.10;14.55;;;;;;;-3.47;67.34;98369.45;1723443;82;20949;-70
2022/02/02 07:14:18;;;;;;;53.48;17.42;;;;;;;-3.35;67.47;98363.89;1724144;82;20968;-70
2022/02/02 07:19:24;;;;;;;35.52;13.25;;;;;;;-3.14;67.11;98360.84;1724779;83;21152;-70
2022/02/02 07:27:28;;;;;;;29.85;9.80;;;;;;;-2.93;65.91;98358.28;1734540;82;20843;-70
2022/02/02 07:29:53;;;;;;;33.92;12.00;;;;;;;-2.86;65.88;98352.13;1744542;81;21028;-69
2022/02/02 07:32:26;;;;;;;34.48;11.88;;;;;;;-2.77;65.67;98354.34;1758526;81;22458;-69
2022/02/02 07:35:23;;;;;;;32.78;11.63;;;;;;;-2.67;65.90;98356.28;1758897;81;20975;-70
2022/02/02 07:38:13;;;;;;;28.92;10.48;;;;;;;-2.59;65.55;98362.52;1760437;81;20932;-69
2022/02/02 07:40:44;;;;;;;25.48;9.40;;;;;;;-2.51;65.50;98358.01;1760593;81;21071;-71
2022/02/02 07:43:21;;;;;;;29.52;10.05;;;;;;;-2.45;65.42;98356.13;1760832;81;21086;-70
2022/02/02 07:45:53;;;;;;;29.10;10.20;;;;;;;-2.41;65.44;98353.72;1757085;81;21166;-69
2022/02/02 07:48:21;;;;;;;21.73;9.80;;;;;;;-2.37;65.07;98354.83;1760406;81;20932;-69
2022/02/02 07:50:48;;;;;;;29.18;10.05;;;;;;;-2.32;65.20;98353.51;1732510;81;21000;-70
2022/02/02 07:53:22;;;;;;;29.48;9.65;;;;;;;-2.24;65.12;98352.18;1760508;81;20928;-70
2022/02/02 07:55:47;;;;;;;24.77;9.63;;;;;;;-2.17;65.15;98354.10;1759775;81;21474;-70
2022/02/02 07:58:20;;;;;;;19.52;8.55;;;;;;;-2.09;64.92;98350.89;1728669;83;22138;-69
2022/02/02 08:00:48;;;;;;;19.23;8.05;;;;;;;-2.01;64.97;98349.55;1760144;81;21429;-70
2022/02/02 08:03:18;;;;;;;20.27;9.73;;;;;;;-1.99;64.49;98347.41;1728814;83;20910;-70
2022/02/02 08:05:51;;;;;;;28.50;10.65;;;;;;;-1.96;64.69;98348.22;1760590;81;21461;-70
2022/02/02 08:08:30;;;;;;;25.90;10.82;;;;;;;-1.88;64.78;98340.69;1760215;81;21040;-70
2022/02/02 08:11:04;;;;;;;14.53;6.50;;;;;;;-1.79;64.73;98345.03;1759347;81;21134;-69
2022/02/02 08:13:42;;;;;;;24.37;9.40;;;;;;;-1.71;64.80;98352.05;1760630;81;21089;-70
2022/02/02 08:16:12;;;;;;;22.27;8.90;;;;;;;-1.59;64.58;98348.30;1728765;83;20970;-69
2022/02/02 08:18:42;;;;;;;26.27;9.63;;;;;;;-1.56;64.40;98351.81;1760438;81;20898;-70
2022/02/02 08:21:09;;;;;;;25.57;10.48;;;;;;;-1.52;64.35;98356.16;1729014;83;20998;-70
2022/02/02 08:23:36;;;;;;;28.70;9.55;;;;;;;-1.51;64.65;98349.13;1760832;81;21160;-71
2022/02/02 08:26:09;;;;;;;20.75;9.63;;;;;;;-1.49;64.67;98350.20;1760604;81;20980;-70
2022/02/02 08:28:38;;;;;;;28.85;10.28;;;;;;;-1.45;64.90;98348.56;1727733;83;21008;-69
2022/02/02 08:31:05;;;;;;;26.37;9.88;;;;;;;-1.36;64.98;98342.09;1724961;83;20899;-70
2022/02/02 08:33:38;;;;;;;26.93;10.32;;;;;;;-1.23;64.93;98342.91;1700498;83;20956;-70
2022/02/02 08:36:04;;;;;;;29.70;9.68;;;;;;;-1.16;65.08;98349.39;1724614;83;21513;-70
2022/02/02 08:38:41;;;;;;;26.25;9.60;;;;;;;-1.08;65.16;98343.17;1724816;83;21020;-69
2022/02/02 08:41:11;;;;;;;25.50;10.70;;;;;;;-1.07;64.75;98344.25;1723338;83;21076;-69
2022/02/02 08:43:41;;;;;;;24.15;9.60;;;;;;;-1.09;64.94;98342.36;1724334;83;21028;-70
2022/02/02 08:46:13;;;;;;;28.15;10.35;;;;;;;-1.05;65.07;98340.74;1724399;83;20936;-70
2022/02/02 08:48:40;;;;;;;16.80;9.08;;;;;;;-0.99;65.18;98345.62;1721943;83;21531;-69
2022/02/02 08:51:10;;;;;;;32.90;11.20;;;;;;;-0.99;65.22;98341.56;1724994;83;20957;-69
2022/02/02 08:53:46;;;;;;;25.37;10.38;;;;;;;-0.96;65.44;98334.25;1724729;83;20989;-69
2022/02/02 08:58:46;;;;;;;31.25;11.35;;;;;;;-0.92;65.49;98330.46;1725055;82;21029;-69
2022/02/02 09:01:28;;;;;;;24.67;10.50;;;;;;;-0.83;66.02;98327.98;1724029;83;21498;-70
2022/02/02 09:06:42;;;;;;;38.35;13.53;;;;;;;-0.56;65.67;98333.06;1724863;83;20897;-69
2022/02/02 09:09:15;;;;;;;40.70;12.70;;;;;;;-0.45;65.46;98330.33;1724739;83;20949;-69
2022/02/02 09:36:16;;;;;;;22.65;10.00;;;;;;;0.33;65.54;98294.72;1732421;82;21053;-69
2022/02/02 09:38:40;;;;;;;32.78;10.35;;;;;;;0.42;65.23;98284.08;1732172;82;21524;-67
2022/02/02 09:43:48;;;;;;;27.02;11.30;;;;;;;0.32;65.05;98281.73;1692974;84;21030;-66
2022/02/02 09:46:20;;;;;;;34.60;11.85;;;;;;;0.29;65.21;98276.84;1691240;82;21500;-67
2022/02/02 09:48:51;;;;;;;22.52;9.63;;;;;;;0.33;65.66;98262.19;1722113;82;21067;-68
2022/02/02 09:51:24;;;;;;;23.15;9.95;;;;;;;0.38;65.81;98258.63;1715769;82;21090;-70
2022/02/02 09:54:05;;;;;;;22.05;10.38;;;;;;;0.40;65.88;98255.91;1726488;82;21223;-68
2022/02/02 09:59:29;;;;;;;27.82;9.73;;;;;;;0.42;66.37;98245.60;1725221;82;21397;-68
2022/02/02 10:02:28;;;;;;;24.37;10.08;;;;;;;0.52;66.44;98243.34;1725917;82;20945;-68
2022/02/02 10:05:15;;;;;;;30.40;10.65;;;;;;;0.59;66.45;98240.30;1723943;82;21642;-68
2022/02/02 10:13:05;;;;;;;22.70;10.90;;;;;;;0.82;66.50;98237.93;1730730;82;21465;-67
2022/02/02 10:15:22;;;;;;;27.65;10.18;;;;;;;0.92;66.48;98230.23;1729791;82;20945;-69
2022/02/02 10:17:58;;;;;;;12.93;6.90;;;;;;;0.98;66.19;98231.78;1725559;82;21016;-69
2022/02/02 10:20:27;;;;;;;23.02;9.75;;;;;;;1.02;65.85;98227.95;1728865;82;21103;-69
2022/02/02 10:22:57;;;;;;;30.08;9.85;;;;;;;1.02;66.00;98227.41;1731849;81;21544;-68
2022/02/02 10:25:35;;;;;;;20.50;9.73;;;;;;;1.06;65.75;98224.91;1728849;82;21488;-70
2022/02/02 10:28:12;;;;;;;25.45;10.00;;;;;;;1.07;66.00;98227.36;1726115;82;21010;-69
2022/02/02 10:30:48;;;;;;;24.05;10.08;;;;;;;1.09;66.14;98221.06;1734027;81;21485;-71
2022/02/02 10:33:24;;;;;;;26.80;9.65;;;;;;;1.12;66.25;98214.27;1744455;81;21329;-71
2022/02/02 10:36:11;;;;;;;27.70;9.95;;;;;;;1.17;66.29;98216.92;1739375;81;21567;-69
2022/02/02 10:38:51;;;;;;;26.57;9.73;;;;;;;1.25;66.29;98216.00;1738156;81;21009;-69
2022/02/02 10:43:54;;;;;;;20.70;9.75;;;;;;;1.36;65.97;98197.16;1738184;81;21477;-69
2022/02/02 10:49:18;;;;;;;23.62;10.18;;;;;;;1.53;66.18;98199.92;1736779;81;20925;-70
2022/02/02 10:51:50;;;;;;;28.35;9.53;;;;;;;1.61;65.75;98201.98;1699687;81;21055;-70
2022/02/02 10:56:48;;;;;;;23.83;10.00;;;;;;;1.54;65.66;98208.31;1776725;80;20924;-68
2022/02/02 10:59:30;;;;;;;31.02;9.58;;;;;;;1.54;65.72;98189.31;1784783;80;21155;-68
2022/02/02 11:07:34;;;;;;;24.87;9.05;;;;;;;1.46;66.42;98173.14;1702751;83;21090;-70
2022/02/02 11:10:01;;;;;;;25.82;10.75;;;;;;;1.44;66.56;98169.36;1743396;81;37141;-69
2022/02/02 11:12:31;;;;;;;23.12;10.45;;;;;;;1.33;66.84;98170.03;1711394;82;21168;-69
2022/02/02 11:15:05;;;;;;;24.82;10.45;;;;;;;1.32;67.56;98164.89;1738119;82;21064;-67
2022/02/02 11:17:48;;;;;;;24.30;10.85;;;;;;;1.33;67.77;98168.67;1741227;82;21056;-69
2022/02/02 11:20:15;;;;;;;25.32;9.93;;;;;;;1.36;67.94;98162.41;1737211;82;21142;-67
2022/02/02 11:22:52;;;;;;;25.62;10.63;;;;;;;1.38;68.08;98162.36;1743815;81;20981;-69
2022/02/02 11:25:33;;;;;;;27.05;11.30;;;;;;;1.41;68.17;98160.45;1740968;81;21143;-69
2022/02/02 11:27:58;;;;;;;24.72;11.08;;;;;;;1.39;68.34;98165.89;1740114;81;21046;-68
2022/02/02 11:30:40;;;;;;;26.68;10.95;;;;;;;1.40;68.64;98164.24;1737025;82;21095;-68
2022/02/02 11:33:18;;;;;;;27.02;10.53;;;;;;;1.39;68.72;98154.49;1731331;82;21011;-68
2022/02/02 11:35:46;;;;;;;20.27;10.10;;;;;;;1.43;69.18;98154.72;1701033;82;21432;-67
2022/02/02 11:38:28;;;;;;;23.02;9.43;;;;;;;1.43;69.26;98144.65;1734616;81;22422;-69
2022/02/02 11:44:19;;;;;;;19.50;10.03;;;;;;;1.49;69.50;98148.66;1701403;82;21552;-71
2022/02/02 11:47:08;;;;;;;25.12;10.50;;;;;;;1.50;69.72;98146.21;1737327;81;20968;-69
2022/02/02 11:50:06;;;;;;;23.47;10.95;;;;;;;1.56;69.98;98141.77;1743476;81;21160;-68
2022/02/02 11:52:46;;;;;;;24.10;10.20;;;;;;;1.54;70.07;98147.22;1729827;81;21151;-69
2022/02/02 11:55:42;;;;;;;28.50;11.83;;;;;;;1.59;70.32;98140.36;1731026;81;21051;-69
2022/02/02 11:58:20;;;;;;;37.13;15.45;;;;;;;1.63;70.22;98140.59;1731921;82;21047;-68
2022/02/02 12:09:29;;;;;;;24.65;11.78;;;;;;;1.79;70.11;98124.30;1751106;81;20980;-70
2022/02/02 12:21:12;;;;;;;31.25;13.62;;;;;;;1.76;70.19;98133.59;1735347;81;21748;-68
2022/02/02 12:58:52;;;;;;;28.15;10.68;;;;;;;1.48;71.26;98164.70;1718014;82;21576;-68
2022/02/02 13:01:20;;;;;;;24.00;10.85;;;;;;;1.48;71.27;98151.13;1705148;83;21508;-70
2022/02/02 13:03:50;;;;;;;30.00;12.18;;;;;;;1.49;71.35;98150.83;1703446;83;21127;-69
2022/02/02 13:06:21;;;;;;;31.15;12.85;;;;;;;1.54;71.42;98148.04;1708769;83;20960;-70
2022/02/02 13:08:54;;;;;;;25.90;11.53;;;;;;;1.59;71.38;98159.37;1688206;84;21052;-70
2022/02/02 13:11:30;;;;;;;21.90;10.35;;;;;;;1.58;71.20;98152.34;1696469;82;21230;-70
2022/02/02 13:13:52;;;;;;;24.40;11.12;;;;;;;1.53;71.24;98162.73;1717606;82;21073;-70
2022/02/02 13:16:26;;;;;;;32.28;12.75;;;;;;;1.48;71.49;98170.94;1724811;82;21000;-69
2022/02/02 13:18:54;;;;;;;22.15;11.25;;;;;;;1.39;71.60;98174.04;1713905;82;21133;-67
2022/02/02 13:21:32;;;;;;;35.43;16.90;;;;;;;1.33;71.77;98178.17;1715055;82;21075;-69
2022/02/02 13:26:45;;;;;;;28.45;10.88;;;;;;;1.31;72.11;98182.30;1702792;82;20975;-68
2022/02/02 13:29:29;;;;;;;31.23;13.93;;;;;;;1.25;72.26;98181.54;1718167;82;21015;-68
2022/02/02 13:32:08;;;;;;;28.80;11.83;;;;;;;1.23;72.40;98176.95;1683674;84;21094;-70
2022/02/02 13:34:52;;;;;;;29.67;10.53;;;;;;;1.17;72.54;98177.58;1719620;82;22168;-69
2022/02/02 13:42:57;;;;;;;37.42;13.93;;;;;;;1.06;73.06;98192.34;1632501;84;21417;-68
2022/02/02 13:51:03;;;;;;;33.83;12.65;;;;;;;0.99;73.63;98194.63;1703503;82;21051;-68
2022/02/02 13:59:20;;;;;;;86.22;33.50;;;;;;;0.96;74.22;98192.73;1721358;82;20311;-69
2022/02/02 14:07:30;;;;;;;58.20;25.57;;;;;;;0.93;74.80;98196.03;1715580;82;21160;-69
2022/02/02 14:10:24;;;;;;;46.90;18.70;;;;;;;0.89;75.01;98194.98;1687080;83;21064;-68
2022/02/02 14:32:06;;;;;;;72.60;24.00;;;;;;;0.77;76.26;98200.02;1705837;83;21041;-70
2022/02/02 14:34:34;;;;;;;97.17;28.75;;;;;;;0.76;76.36;98198.38;1705565;83;21968;-69
2022/02/02 14:37:15;;;;;;;66.47;24.75;;;;;;;0.74;76.49;98197.31;1675682;85;21001;-69
2022/02/02 14:39:52;;;;;;;63.92;20.75;;;;;;;0.73;76.58;98200.56;1699750;84;20952;-70
2022/02/02 14:42:17;;;;;;;48.55;16.80;;;;;;;0.72;76.67;98204.38;1698443;84;21087;-70
2022/02/02 14:44:47;;;;;;;56.50;19.73;;;;;;;0.68;76.82;98199.25;1700923;84;21064;-70
2022/02/02 14:47:21;;;;;;;47.00;17.80;;;;;;;0.64;77.02;98198.77;1700702;84;21154;-70
2022/02/02 14:50:07;;;;;;;36.53;15.75;;;;;;;0.59;77.08;98200.98;1699210;84;20953;-70
2022/02/02 14:52:34;;;;;;;63.70;29.42;;;;;;;0.53;77.31;98204.28;1698246;84;21517;-69
2022/02/02 15:06:49;;;;;;;60.45;19.75;;;;;;;0.39;77.97;98208.23;1699973;84;21102;-70
2022/02/02 15:16:54;;;;;;;60.10;19.00;;;;;;;0.28;78.48;98212.91;1690439;84;21025;-70
2022/02/02 15:27:34;;;;;;;49.00;20.77;;;;;;;0.13;79.26;98212.49;1698882;84;23329;-69
2022/02/02 15:30:12;;;;;;;74.22;26.07;;;;;;;0.05;79.38;98206.33;1683191;83;21017;-71
2022/02/02 15:32:30;;;;;;;59.05;22.42;;;;;;;0.01;79.57;98213.38;1707632;83;20991;-68
2022/02/02 15:34:58;;;;;;;63.10;21.52;;;;;;;-0.04;79.82;98219.66;1705730;83;21059;-68
2022/02/02 15:37:39;;;;;;;56.95;19.05;;;;;;;-0.08;79.92;98219.41;1717527;83;21532;-69
2022/02/02 15:40:07;;;;;;;51.85;18.35;;;;;;;-0.13;80.05;98221.61;1706565;83;22066;-69
2022/02/02 15:57:50;;;;;;;41.10;15.53;;;;;;;-0.17;80.96;98236.00;1693921;83;21072;-73
2022/02/02 15:58:59;;;;;;;39.05;15.65;;;;;;;-0.20;81.12;98235.18;1691812;83;21071;-72
2022/02/02 16:02:07;;;;;;;36.95;14.10;;;;;;;-0.22;81.22;98237.38;1717380;83;21035;-74
2022/02/02 16:04:34;;;;;;;;;;;;;;;;;;;;;
2022/02/02 16:06:51;;;;;;;36.50;14.63;;;;;;;-0.22;81.60;98231.97;1700259;83;21059;-72
2022/02/02 16:09:26;;;;;;;33.98;14.60;;;;;;;-0.26;81.69;98229.80;1705928;84;21450;-73
2022/02/02 16:12:05;;;;;;;45.67;16.15;;;;;;;-0.28;81.93;98235.23;1694366;84;21008;-73
2022/02/02 16:14:28;;;;;;;51.25;17.32;;;;;;;-0.31;82.08;98232.56;1692747;84;21020;-72
2022/02/02 16:25:12;;;;;;;61.83;20.95;;;;;;;-0.42;82.50;98239.09;1699551;82;21010;-73
2022/02/02 16:34:06;;;;;;;65.12;19.60;;;;;;;-0.47;82.83;98245.34;1732202;82;21203;-71
2022/02/02 16:38:24;;;;;;;61.02;20.45;;;;;;;-0.50;83.17;98246.73;1729590;82;21011;-72
2022/02/02 16:40:52;;;;;;;64.55;22.20;;;;;;;-0.51;83.39;98249.69;1732281;82;21525;-74
2022/02/02 16:43:23;;;;;;;60.83;20.97;;;;;;;-0.51;83.41;98257.80;1728015;82;21561;-73
2022/02/02 16:45:55;;;;;;;62.20;22.05;;;;;;;-0.50;83.51;98256.73;1732709;82;21220;-74
2022/02/02 16:48:25;;;;;;;57.78;20.40;;;;;;;-0.50;83.58;98253.49;1732584;82;21425;-72
2022/02/02 16:50:56;;;;;;;55.63;20.08;;;;;;;-0.48;83.73;98255.10;1732377;82;21067;-73
2022/02/02 16:53:35;;;;;;;57.90;19.52;;;;;;;-0.47;83.84;98255.36;1701727;82;20951;-73
2022/02/02 16:56:30;;;;;;;44.58;16.48;;;;;;;-0.48;83.92;98258.63;1728071;82;20996;-73
2022/02/02 17:29:57;;;;;;;80.28;28.05;;;;;;;-0.46;85.45;98259.70;1750547;81;21083;-69
2022/02/02 17:35:26;;;;;;;61.63;21.25;;;;;;;-0.48;85.61;98255.10;1728699;82;20948;-73
2022/02/02 17:40:50;;;;;;;48.33;18.12;;;;;;;-0.47;85.88;98255.36;1710823;82;22011;-72
2022/02/02 18:14:13;;;;;;;37.70;16.55;;;;;;;-0.27;86.34;98255.27;1712426;83;20943;-73
2022/02/02 18:16:37;;;;;;;37.20;14.93;;;;;;;-0.28;86.39;98255.01;1708008;81;21046;-72
2022/02/02 18:18:50;;;;;;;34.38;14.93;;;;;;;-0.27;86.51;98262.03;1751627;81;21016;-73
2022/02/02 18:21:12;;;;;;;34.27;16.70;;;;;;;-0.27;86.63;98247.67;1679779;85;22424;-73
2022/02/02 18:29:49;;;;;;;42.55;16.32;;;;;;;-0.20;86.67;98263.08;1688018;83;20981;-72
2022/02/02 18:32:31;;;;;;;34.98;16.20;;;;;;;-0.17;86.74;98257.09;1670886;85;21071;-71
2022/02/02 18:34:54;;;;;;;39.35;14.33;;;;;;;-0.14;86.85;98258.45;1668201;85;21082;-73
2022/02/02 18:48:39;;;;;;;31.05;14.10;;;;;;;-0.04;86.89;98265.70;1671396;85;21243;-73
2022/02/02 18:58:29;;;;;;;30.97;15.28;;;;;;;-0.02;87.09;98275.16;1514702;94;21093;-74
2022/02/02 19:00:59;;;;;;;31.37;14.45;;;;;;;0.01;87.23;98267.56;1551850;90;21190;-71
2022/02/02 19:03:43;;;;;;;31.30;14.20;;;;;;;0.02;87.29;98266.48;1607576;87;20975;-72
2022/02/02 19:06:38;;;;;;;33.70;14.28;;;;;;;0.04;87.34;98262.39;1617878;88;20937;-72
2022/02/02 19:55:32;;;;;;;30.57;14.20;;;;;;;0.15;87.72;98281.30;1676580;85;21564;-72
2022/02/02 20:08:42;;;;;;;38.80;15.25;;;;;;;0.17;87.78;98287.25;1710883;84;21455;-72
2022/02/02 20:11:16;;;;;;;38.30;16.25;;;;;;;0.18;87.74;98286.97;1710903;83;21002;-71
2022/02/02 20:13:39;;;;;;;35.30;15.83;;;;;;;0.18;87.73;98288.86;1711274;83;21006;-72
2022/02/02 20:16:05;;;;;;;29.87;14.07;;;;;;;0.19;87.73;98291.28;1711029;84;21044;-73
2022/02/02 20:18:38;;;;;;;31.40;15.90;;;;;;;0.18;87.74;98278.84;1711042;83;20938;-72
2022/02/02 20:21:05;;;;;;;29.72;15.10;;;;;;;0.17;87.84;98284.54;1711128;84;21710;-70
2022/02/02 20:23:30;;;;;;;35.20;17.23;;;;;;;0.18;87.90;98281.55;1710806;84;20970;-72
2022/02/02 20:25:56;;;;;;;33.63;14.68;;;;;;;0.21;87.87;98288.29;1711052;84;21557;-72
2022/02/02 20:28:23;;;;;;;36.25;15.45;;;;;;;0.20;87.88;98289.39;1711192;83;21019;-72
2022/02/02 20:30:51;;;;;;;30.62;14.35;;;;;;;0.22;87.90;98287.22;1702173;83;21015;-72
2022/02/02 20:33:19;;;;;;;27.70;15.18;;;;;;;0.23;87.89;98284.22;1696884;84;21939;-72
2022/02/02 20:35:54;;;;;;;31.48;16.27;;;;;;;0.24;87.94;98285.83;1694053;84;20942;-74
2022/02/02 20:38:21;;;;;;;38.48;15.70;;;;;;;0.26;87.92;98286.11;1696639;84;20974;-72
2022/02/02 20:40:47;;;;;;;41.30;18.15;;;;;;;0.27;87.87;98286.36;1696611;84;20938;-72
2022/02/02 20:43:30;;;;;;;44.60;17.75;;;;;;;0.26;87.87;98292.32;1696644;84;20966;-71
2022/02/02 21:08:24;;;;;;;35.43;16.23;;;;;;;0.26;88.27;98317.27;1696636;84;21459;-73
2022/02/02 21:10:07;;;;;;;44.80;17.17;;;;;;;0.26;88.28;98314.56;1688072;84;21435;-71
2022/02/02 21:15:28;;;;;;;36.08;17.77;;;;;;;0.28;88.47;98316.42;1696867;84;21090;-72
2022/02/02 21:17:51;;;;;;;31.20;15.55;;;;;;;0.28;88.46;98316.42;1696247;84;20942;-73
2022/02/02 21:20:24;;;;;;;33.08;15.45;;;;;;;0.25;88.39;98321.88;1696550;83;21069;-70
2022/02/02 21:22:51;;;;;;;40.03;17.20;;;;;;;0.24;88.45;98321.59;1696536;84;20855;-73
2022/02/02 21:25:33;;;;;;;56.28;25.62;;;;;;;0.25;88.54;98320.52;1696438;84;21149;-73
2022/02/02 21:27:48;;;;;;;66.45;28.40;;;;;;;0.25;88.56;98321.88;1695251;84;20975;-73